Pyrites, New York
Current Conditions -  °F | °C
As of 1:53 PM on Sunday 21 Dec 2014 (Local Time) from KMSS Reporting Station
Overcast Overcast  
Wind Chill: -11°   Ceiling: 2300
Heat Index: -6°   Visibility: 7mi
Dew Point: -9°   Wind: 7mph
Humidity: 81%   Direction: 70°ENE
Pressure: 30.35"   Gusts: NA
Location:  44.51°N, 75.19°W
Report Text: KMSS 211853Z AUTO 07006KT 7SM OVC023 M06/M09 A3035 RMK AO2 SLP284 T10611089
Loading
Personal Weather Stations






























Interactive Weather Map New forecast layout! Learn more

10-Day Weather Forecast

Advertisements
Track Severe Weather on mobile